createdAt,value
2018-08-13T00:00:21.958Z,1.60
2018-08-13T00:02:48.829Z,1.90
2018-08-13T00:05:15.777Z,1.63
2018-08-13T00:07:42.674Z,1.50
2018-08-13T00:10:09.514Z,1.70
2018-08-13T00:12:37.370Z,1.90
2018-08-13T00:15:04.162Z,1.90
2018-08-13T00:17:31.209Z,1.73
2018-08-13T00:19:58.099Z,1.77
2018-08-13T00:22:24.942Z,1.63
2018-08-13T00:24:52.058Z,1.80
2018-08-13T00:27:18.901Z,2.10
2018-08-13T00:29:45.743Z,1.70
2018-08-13T00:32:12.757Z,1.60
2018-08-13T00:34:39.590Z,1.70
2018-08-13T00:37:06.387Z,1.60
2018-08-13T00:39:33.211Z,1.70
2018-08-13T00:42:00.027Z,1.73
2018-08-13T00:44:26.854Z,1.60
2018-08-13T00:46:53.683Z,1.60
2018-08-13T00:49:20.503Z,1.67
2018-08-13T00:51:47.352Z,1.80
2018-08-13T00:54:14.184Z,1.63
2018-08-13T00:56:41.123Z,1.67
2018-08-13T00:59:07.962Z,1.73
2018-08-13T01:01:34.791Z,1.50
2018-08-13T01:04:01.622Z,1.80
2018-08-13T01:06:28.485Z,1.73
2018-08-13T01:08:55.315Z,1.77
2018-08-13T01:11:22.137Z,1.63
2018-08-13T01:13:48.974Z,1.57
2018-08-13T01:16:15.854Z,1.30
2018-08-13T01:18:42.662Z,2.00
2018-08-13T01:21:09.496Z,1.87
2018-08-13T01:23:36.329Z,1.80
2018-08-13T01:26:03.229Z,2.10
2018-08-13T01:28:30.058Z,1.70
2018-08-13T01:30:56.902Z,1.40
2018-08-13T01:33:23.717Z,1.30
2018-08-13T01:35:50.622Z,2.00
2018-08-13T01:38:17.460Z,1.80
2018-08-13T01:40:44.327Z,1.40
2018-08-13T01:43:11.153Z,2.07
2018-08-13T01:45:38.178Z,1.70
2018-08-13T01:48:05.009Z,1.70
2018-08-13T01:50:31.823Z,1.80
2018-08-13T01:52:58.808Z,1.67
2018-08-13T01:55:25.766Z,1.60
2018-08-13T01:57:52.606Z,1.93
2018-08-13T02:00:19.445Z,1.77
2018-08-13T02:02:46.273Z,1.80
2018-08-13T02:05:13.207Z,1.40
2018-08-13T02:07:40.029Z,1.63
2018-08-13T02:10:06.866Z,1.70
2018-08-13T02:12:33.711Z,1.90
2018-08-13T02:15:00.701Z,1.73
2018-08-13T02:17:27.536Z,1.60
2018-08-13T02:19:54.362Z,1.70
2018-08-13T02:22:21.199Z,1.70
2018-08-13T02:24:48.075Z,1.87
2018-08-13T02:27:14.908Z,1.93
2018-08-13T02:29:41.759Z,2.20
2018-08-13T02:32:09.047Z,1.47
2018-08-13T02:34:35.862Z,1.97
2018-08-13T02:37:02.685Z,1.70
2018-08-13T02:39:29.521Z,1.50
2018-08-13T02:41:56.384Z,1.60
2018-08-13T02:44:23.200Z,1.83
2018-08-13T02:46:50.038Z,1.73
2018-08-13T02:49:16.859Z,1.90
2018-08-13T02:51:43.687Z,2.10
2018-08-13T02:54:10.514Z,1.90
2018-08-13T02:56:37.448Z,1.77
2018-08-13T02:59:04.275Z,1.80
2018-08-13T03:01:31.109Z,2.30
2018-08-13T03:03:57.944Z,1.77
2018-08-13T03:06:24.820Z,1.97
2018-08-13T03:08:51.649Z,2.00
2018-08-13T03:11:18.480Z,1.90
2018-08-13T03:13:45.314Z,1.50
2018-08-13T03:16:12.185Z,2.03
2018-08-13T03:18:39.024Z,1.60
2018-08-13T03:21:05.855Z,1.80
2018-08-13T03:23:32.683Z,2.10
2018-08-13T03:25:59.596Z,1.90
2018-08-13T03:28:26.427Z,1.80
2018-08-13T03:30:53.270Z,2.03
2018-08-13T03:33:20.103Z,1.60
2018-08-13T03:35:46.942Z,1.90
2018-08-13T03:38:13.782Z,2.00
2018-08-13T03:40:40.623Z,2.33
2018-08-13T03:43:07.458Z,1.83
2018-08-13T03:45:34.307Z,1.97
2018-08-13T03:48:01.149Z,2.00
2018-08-13T03:50:27.962Z,2.13
2018-08-13T03:52:54.786Z,1.60
2018-08-13T03:55:21.675Z,1.80
2018-08-13T03:57:48.525Z,1.90
2018-08-13T04:00:15.343Z,1.87
2018-08-13T04:02:42.171Z,1.87
2018-08-13T04:05:09.053Z,2.03
2018-08-13T04:07:35.874Z,1.93
2018-08-13T04:10:02.703Z,1.90
2018-08-13T04:12:29.572Z,1.80
2018-08-13T04:14:56.407Z,1.60
2018-08-13T04:17:23.248Z,1.63
2018-08-13T04:19:50.082Z,1.83
2018-08-13T04:22:16.911Z,1.80
2018-08-13T04:24:43.795Z,1.63
2018-08-13T04:27:10.612Z,1.87
2018-08-13T04:29:37.452Z,2.17
2018-08-13T04:32:04.278Z,2.30
2018-08-13T04:34:31.161Z,2.57
2018-08-13T04:36:57.981Z,3.07
2018-08-13T04:39:24.807Z,2.60
2018-08-13T04:41:51.635Z,2.70
2018-08-13T04:44:18.458Z,3.07
2018-08-13T04:46:45.311Z,3.77
2018-08-13T04:49:12.224Z,2.90
2018-08-13T04:51:39.892Z,3.00
2018-08-13T04:54:06.713Z,3.07
2018-08-13T04:56:33.589Z,3.50
2018-08-13T04:59:00.539Z,3.40
2018-08-13T05:01:27.230Z,3.63
2018-08-13T05:03:54.090Z,3.13
2018-08-13T05:06:20.944Z,3.30
2018-08-13T05:08:47.769Z,3.60
2018-08-13T05:11:14.621Z,6.13
2018-08-13T05:13:41.453Z,5.60
2018-08-13T05:16:08.330Z,4.20
2018-08-13T05:18:35.169Z,3.60
2018-08-13T05:21:02.004Z,3.40
2018-08-13T05:23:28.824Z,3.20
2018-08-13T05:25:55.706Z,9.87
2018-08-13T05:28:22.572Z,6.63
2018-08-13T05:30:49.407Z,4.40
2018-08-13T05:33:16.259Z,4.23
2018-08-13T05:35:43.293Z,3.47
2018-08-13T05:38:10.100Z,3.90
2018-08-13T05:40:36.914Z,3.27
2018-08-13T05:43:03.753Z,4.03
2018-08-13T05:45:30.637Z,4.00
2018-08-13T05:47:57.458Z,3.10
2018-08-13T05:50:24.275Z,4.00
2018-08-13T05:52:51.110Z,3.80
2018-08-13T05:55:17.994Z,3.30
2018-08-13T05:57:44.865Z,18.60
2018-08-13T06:00:13.030Z,19.13
2018-08-13T06:02:39.975Z,8.60
2018-08-13T06:05:07.269Z,5.87
2018-08-13T06:07:34.062Z,5.07
2018-08-13T06:10:00.892Z,4.97
2018-08-13T06:12:27.724Z,4.13
2018-08-13T06:14:54.995Z,3.67
2018-08-13T06:17:21.830Z,3.73
2018-08-13T06:19:48.663Z,3.47
2018-08-13T06:22:15.521Z,3.77
2018-08-13T06:24:42.324Z,3.40
2018-08-13T06:27:09.271Z,3.37
2018-08-13T06:29:36.093Z,3.80
2018-08-13T06:32:02.913Z,3.17
2018-08-13T06:34:29.754Z,3.10
2018-08-13T06:36:56.562Z,7.77
2018-08-13T06:39:23.385Z,5.30
2018-08-13T06:41:50.262Z,4.80
2018-08-13T06:44:17.115Z,5.67
2018-08-13T06:46:43.947Z,4.70
2018-08-13T06:49:10.782Z,5.60
2018-08-13T06:51:37.627Z,5.67
2018-08-13T06:54:04.464Z,4.73
2018-08-13T06:56:31.325Z,4.27
2018-08-13T06:58:58.158Z,4.70
2018-08-13T07:01:24.990Z,4.70
2018-08-13T07:03:51.833Z,4.30
2018-08-13T07:06:18.691Z,4.90
2018-08-13T07:08:45.521Z,4.63
2018-08-13T07:11:12.372Z,4.93
2018-08-13T07:13:39.180Z,4.30
2018-08-13T07:16:06.063Z,4.10
2018-08-13T07:18:32.900Z,4.17
2018-08-13T07:20:59.740Z,4.63
2018-08-13T07:23:26.547Z,4.50
2018-08-13T07:25:53.436Z,5.00
2018-08-13T07:28:20.274Z,4.50
2018-08-13T07:30:47.109Z,4.83
2018-08-13T07:33:13.939Z,4.37
2018-08-13T07:35:40.812Z,4.47
2018-08-13T07:38:07.630Z,5.03
2018-08-13T07:40:34.453Z,5.80
2018-08-13T07:43:01.291Z,5.03
2018-08-13T07:45:28.229Z,5.20
2018-08-13T07:47:55.056Z,5.50
2018-08-13T07:50:21.869Z,5.70
2018-08-13T07:52:48.702Z,6.20
2018-08-13T07:55:15.694Z,6.20
2018-08-13T07:57:42.512Z,8.07
2018-08-13T08:00:09.357Z,7.07
2018-08-13T08:02:36.173Z,7.63
2018-08-13T08:05:03.144Z,8.10
2018-08-13T08:07:29.985Z,7.60
2018-08-13T08:09:56.840Z,7.10
2018-08-13T08:12:23.661Z,6.77
2018-08-13T08:14:50.724Z,6.30
2018-08-13T08:17:17.859Z,6.67
2018-08-13T08:19:44.661Z,6.40
2018-08-13T08:22:11.510Z,5.83
2018-08-13T08:24:38.341Z,5.60
2018-08-13T08:27:05.265Z,5.23
2018-08-13T08:29:32.073Z,5.37
2018-08-13T08:31:58.911Z,5.27
2018-08-13T08:34:25.821Z,5.83
2018-08-13T08:36:52.654Z,5.90
2018-08-13T08:39:19.508Z,5.43
2018-08-13T08:41:46.342Z,4.93
2018-08-13T08:44:13.166Z,6.17
2018-08-13T08:46:40.080Z,5.33
2018-08-13T08:49:06.902Z,8.10
2018-08-13T08:51:33.738Z,6.70
2018-08-13T08:54:00.585Z,6.20
2018-08-13T08:56:27.480Z,6.80
2018-08-13T08:58:54.287Z,5.77
2018-08-13T09:01:21.114Z,5.70
2018-08-13T09:03:47.973Z,6.37
2018-08-13T09:06:15.026Z,6.37
2018-08-13T09:08:41.846Z,6.77
2018-08-13T09:11:08.770Z,5.20
2018-08-13T09:13:35.623Z,5.53
2018-08-13T09:16:02.628Z,5.80
2018-08-13T09:18:29.442Z,5.83
2018-08-13T09:20:56.272Z,5.30
2018-08-13T09:23:23.093Z,4.70
2018-08-13T09:25:50.023Z,6.20
2018-08-13T09:28:16.854Z,5.00
2018-08-13T09:30:43.681Z,4.53
2018-08-13T09:33:10.489Z,4.77
2018-08-13T09:35:37.443Z,3.90
2018-08-13T09:38:04.794Z,6.20
2018-08-13T09:40:31.602Z,11.20
2018-08-13T09:42:58.592Z,9.27
2018-08-13T09:45:25.604Z,7.43
2018-08-13T09:47:52.649Z,6.70
2018-08-13T09:50:19.476Z,6.30
2018-08-13T09:52:46.528Z,5.00
2018-08-13T09:55:13.525Z,4.90
2018-08-13T09:57:40.346Z,5.03
2018-08-13T10:00:07.188Z,5.40
2018-08-13T10:02:34.014Z,5.40
2018-08-13T10:05:00.899Z,4.70
2018-08-13T10:07:27.808Z,5.10
2018-08-13T10:09:54.637Z,5.20
2018-08-13T10:12:21.469Z,5.20
2018-08-13T10:14:48.471Z,5.60
2018-08-13T10:17:15.649Z,5.00
2018-08-13T10:19:42.529Z,8.63
2018-08-13T10:22:09.363Z,9.63
2018-08-13T10:24:36.206Z,7.93
2018-08-13T10:27:03.048Z,8.17
2018-08-13T10:29:29.878Z,6.97
2018-08-13T10:31:56.878Z,6.77
2018-08-13T10:34:23.684Z,6.40
2018-08-13T10:36:50.519Z,6.70
2018-08-13T10:39:17.525Z,11.07
2018-08-13T10:41:44.563Z,6.60
2018-08-13T10:44:11.393Z,9.13
2018-08-13T10:46:38.250Z,8.13
2018-08-13T10:49:05.073Z,9.40
2018-08-13T10:51:31.890Z,6.90
2018-08-13T10:53:58.719Z,6.87
2018-08-13T10:56:25.616Z,5.80
2018-08-13T10:58:52.436Z,5.90
2018-08-13T11:01:19.305Z,5.10
2018-08-13T11:03:46.069Z,4.93
2018-08-13T11:06:13.001Z,4.40
2018-08-13T11:08:39.837Z,5.00
2018-08-13T11:11:07.238Z,4.97
2018-08-13T11:13:34.079Z,4.40
2018-08-13T11:16:00.976Z,4.10
2018-08-13T11:18:27.817Z,4.30
2018-08-13T11:20:54.679Z,4.60
2018-08-13T11:23:21.474Z,4.17
2018-08-13T11:25:48.347Z,4.47
2018-08-13T11:28:15.174Z,4.47
2018-08-13T11:30:42.024Z,4.50
2018-08-13T11:33:08.831Z,3.90
2018-08-13T11:35:35.725Z,4.20
2018-08-13T11:38:02.555Z,4.67
2018-08-13T11:40:29.410Z,4.40
2018-08-13T11:42:56.230Z,3.83
2018-08-13T11:45:23.106Z,4.13
2018-08-13T11:47:50.199Z,4.50
2018-08-13T11:50:17.034Z,4.17
2018-08-13T11:52:43.849Z,4.67
2018-08-13T11:55:10.865Z,4.10
2018-08-13T11:57:37.683Z,3.70
2018-08-13T12:00:04.515Z,3.70
2018-08-13T12:02:31.409Z,4.03
2018-08-13T12:04:58.443Z,3.93
2018-08-13T12:07:25.266Z,3.97
2018-08-13T12:09:52.089Z,3.80
2018-08-13T12:12:18.916Z,3.47
2018-08-13T12:14:45.743Z,3.70
2018-08-13T12:17:12.613Z,3.97
2018-08-13T12:19:39.475Z,4.20
2018-08-13T12:22:06.285Z,3.63
2018-08-13T12:24:33.086Z,3.97
2018-08-13T12:26:59.934Z,3.90
2018-08-13T12:29:26.856Z,3.57
2018-08-13T12:31:53.684Z,3.57
2018-08-13T12:34:20.525Z,3.73
2018-08-13T12:36:47.406Z,3.57
2018-08-13T12:39:14.238Z,3.40
2018-08-13T12:41:41.068Z,3.50
2018-08-13T12:44:07.904Z,3.57
2018-08-13T12:46:34.771Z,3.57
2018-08-13T12:49:01.690Z,3.53
2018-08-13T12:51:28.530Z,3.80
2018-08-13T12:53:55.378Z,3.47
2018-08-13T12:56:22.349Z,3.33
2018-08-13T12:58:49.206Z,3.53
2018-08-13T13:01:16.058Z,3.30
2018-08-13T13:03:43.041Z,3.23
2018-08-13T13:06:09.941Z,3.10
2018-08-13T13:08:36.762Z,2.83
2018-08-13T13:11:03.590Z,3.13
2018-08-13T13:13:30.478Z,3.03
2018-08-13T13:15:57.511Z,3.27
2018-08-13T13:18:24.357Z,3.37
2018-08-13T13:20:51.274Z,3.10
2018-08-13T13:23:18.073Z,3.20
2018-08-13T13:25:45.087Z,3.03
2018-08-13T13:28:12.042Z,3.37
2018-08-13T13:30:38.888Z,3.20
2018-08-13T13:33:05.793Z,3.23
2018-08-13T13:35:33.707Z,2.70
2018-08-13T13:38:00.575Z,2.90
2018-08-13T13:40:27.487Z,3.53
2018-08-13T13:42:54.228Z,3.00
2018-08-13T13:45:21.061Z,2.90
2018-08-13T13:47:47.905Z,2.70
2018-08-13T13:50:14.779Z,3.20
2018-08-13T13:52:41.620Z,3.03
2018-08-13T13:55:08.656Z,3.40
2018-08-13T13:57:35.486Z,2.90
2018-08-13T14:00:02.320Z,2.60
2018-08-13T14:02:29.145Z,2.90
2018-08-13T14:04:56.000Z,2.70
2018-08-13T14:07:22.828Z,3.30
2018-08-13T14:09:49.670Z,2.90
2018-08-13T14:12:16.509Z,3.07
2018-08-13T14:14:43.480Z,3.13
2018-08-13T14:17:10.368Z,3.00
2018-08-13T14:19:37.177Z,4.23
2018-08-13T14:22:04.022Z,3.50
2018-08-13T14:24:31.102Z,3.27
2018-08-13T14:26:57.919Z,3.43
2018-08-13T14:29:24.751Z,3.63
2018-08-13T14:31:52.949Z,2.77
2018-08-13T14:34:19.841Z,3.83
2018-08-13T14:36:46.803Z,2.63
2018-08-13T14:39:13.676Z,2.63
2018-08-13T14:41:40.561Z,3.30
2018-08-13T14:44:07.407Z,3.00
2018-08-13T14:46:34.384Z,3.20
2018-08-13T14:49:01.216Z,2.80
2018-08-13T14:51:28.088Z,2.70
2018-08-13T14:53:54.951Z,2.67
2018-08-13T14:56:21.951Z,2.87
2018-08-13T14:58:48.836Z,2.97
2018-08-13T15:01:15.700Z,2.90
2018-08-13T15:03:42.510Z,2.47
2018-08-13T15:06:09.540Z,3.30
2018-08-13T15:08:36.370Z,2.80
2018-08-13T15:11:03.235Z,3.20
2018-08-13T15:13:30.051Z,2.97
2018-08-13T15:15:56.908Z,2.40
2018-08-13T15:18:23.867Z,3.20
2018-08-13T15:20:50.696Z,2.67
2018-08-13T15:23:17.526Z,2.60
2018-08-13T15:25:44.500Z,3.10
2018-08-13T15:28:11.442Z,2.60
2018-08-13T15:30:38.181Z,2.67
2018-08-13T15:33:05.007Z,2.53
2018-08-13T15:35:31.871Z,2.50
2018-08-13T15:37:58.787Z,2.50
2018-08-13T15:40:25.625Z,2.60
2018-08-13T15:42:52.468Z,2.97
2018-08-13T15:45:19.429Z,2.80
2018-08-13T15:47:46.567Z,2.83
2018-08-13T15:50:13.409Z,2.50
2018-08-13T15:52:40.229Z,2.30
2018-08-13T15:55:07.310Z,2.60
2018-08-13T15:57:34.154Z,2.80
2018-08-13T16:00:01.036Z,3.00
2018-08-13T16:02:28.871Z,2.70
2018-08-13T16:04:55.823Z,2.43
2018-08-13T16:07:22.671Z,2.67
2018-08-13T16:09:49.516Z,3.07
2018-08-13T16:12:20.535Z,3.77
2018-08-13T16:14:47.439Z,4.10
2018-08-13T16:17:14.359Z,2.67
2018-08-13T16:19:41.170Z,2.83
2018-08-13T16:22:08.007Z,3.13
2018-08-13T16:24:34.841Z,2.93
2018-08-13T16:27:01.671Z,3.03
2018-08-13T16:29:28.494Z,3.40
2018-08-13T16:31:55.327Z,3.00
2018-08-13T16:34:22.163Z,2.77
2018-08-13T16:36:49.123Z,2.83
2018-08-13T16:39:16.331Z,2.70
2018-08-13T16:41:43.272Z,2.57
2018-08-13T16:44:10.092Z,2.67
2018-08-13T16:46:37.132Z,2.70
2018-08-13T16:49:04.318Z,2.77
2018-08-13T16:51:31.163Z,2.90
2018-08-13T16:53:57.986Z,2.63
2018-08-13T16:56:24.877Z,2.30
2018-08-13T16:58:51.869Z,3.00
2018-08-13T17:01:18.702Z,2.57
2018-08-13T17:03:45.564Z,2.60
2018-08-13T17:06:12.671Z,2.70
2018-08-13T17:08:39.622Z,2.70
2018-08-13T17:11:06.454Z,2.30
2018-08-13T17:13:33.492Z,2.37
2018-08-13T17:16:00.431Z,2.20
2018-08-13T17:18:27.258Z,2.07
2018-08-13T17:20:54.106Z,2.33
2018-08-13T17:23:21.092Z,2.67
2018-08-13T17:25:48.641Z,2.00
2018-08-13T17:28:16.371Z,2.10
2018-08-13T17:30:43.130Z,2.47
2018-08-13T17:33:10.047Z,2.40
2018-08-13T17:35:36.997Z,2.47
2018-08-13T17:38:03.857Z,2.17
2018-08-13T17:40:31.616Z,1.97
2018-08-13T17:42:58.666Z,2.20
2018-08-13T17:45:25.675Z,2.00
2018-08-13T17:47:52.823Z,1.80
2018-08-13T17:50:20.368Z,2.47
2018-08-13T17:52:47.187Z,1.93
2018-08-13T17:55:15.517Z,2.10
2018-08-13T17:57:42.429Z,2.00
2018-08-13T18:00:09.576Z,1.83
2018-08-13T18:02:36.509Z,2.17
2018-08-13T18:05:03.400Z,2.57
2018-08-13T18:07:30.226Z,2.20
2018-08-13T18:09:57.712Z,2.03
2018-08-13T18:12:24.542Z,1.87
2018-08-13T18:14:51.478Z,1.93
2018-08-13T18:17:19.278Z,2.20
2018-08-13T18:19:46.159Z,1.83
2018-08-13T18:22:13.149Z,2.03
2018-08-13T18:24:39.975Z,2.47
2018-08-13T18:27:06.799Z,1.73
2018-08-13T18:29:33.636Z,1.97
2018-08-13T18:32:00.485Z,2.30
2018-08-13T18:34:27.304Z,2.00
2018-08-13T18:36:54.138Z,2.23
2018-08-13T18:39:20.953Z,2.30
2018-08-13T18:41:47.807Z,1.83
2018-08-13T18:44:14.629Z,2.40
2018-08-13T18:46:41.587Z,2.00
2018-08-13T18:49:08.412Z,1.63
2018-08-13T18:51:35.261Z,1.47
2018-08-13T18:54:02.091Z,2.03
2018-08-13T18:56:28.950Z,1.60
2018-08-13T18:58:55.801Z,1.90
2018-08-13T19:01:22.638Z,1.90
2018-08-13T19:03:49.479Z,2.03
2018-08-13T19:06:16.306Z,1.97
2018-08-13T19:08:43.143Z,1.80
2018-08-13T19:11:09.968Z,1.70
2018-08-13T19:13:36.791Z,2.07
2018-08-13T19:16:03.707Z,2.00
2018-08-13T19:18:30.537Z,2.20
2018-08-13T19:20:57.363Z,2.20
2018-08-13T19:23:24.215Z,2.27
2018-08-13T19:25:51.147Z,2.30
2018-08-13T19:28:18.036Z,2.80
2018-08-13T19:30:44.864Z,2.93
2018-08-13T19:33:11.696Z,2.67
2018-08-13T19:35:38.662Z,2.37
2018-08-13T19:38:05.491Z,2.10
2018-08-13T19:40:32.339Z,3.07
2018-08-13T19:42:59.277Z,2.27
2018-08-13T19:45:26.212Z,2.87
2018-08-13T19:47:53.045Z,2.53
2018-08-13T19:50:19.863Z,2.40
2018-08-13T19:52:46.971Z,2.60
2018-08-13T19:55:14.030Z,2.00
2018-08-13T19:57:41.005Z,2.07
2018-08-13T20:00:07.851Z,1.90
2018-08-13T20:02:34.690Z,2.30
2018-08-13T20:05:01.585Z,2.20
2018-08-13T20:07:28.425Z,2.70
2018-08-13T20:09:55.317Z,2.00
2018-08-13T20:12:22.153Z,1.90
2018-08-13T20:14:49.159Z,1.87
2018-08-13T20:17:16.336Z,2.27
2018-08-13T20:19:43.237Z,2.47
2018-08-13T20:22:10.167Z,2.20
2018-08-13T20:24:36.990Z,2.10
2018-08-13T20:27:03.835Z,2.37
2018-08-13T20:29:30.859Z,2.10
2018-08-13T20:31:57.662Z,2.00
2018-08-13T20:34:24.509Z,2.10
2018-08-13T20:36:51.607Z,2.17
2018-08-13T20:39:18.401Z,2.10
2018-08-13T20:41:45.244Z,2.23
2018-08-13T20:44:12.065Z,1.90
2018-08-13T20:46:38.970Z,1.90
2018-08-13T20:49:05.826Z,2.20
2018-08-13T20:51:32.780Z,1.97
2018-08-13T20:53:59.647Z,1.97
2018-08-13T20:56:27.211Z,1.50
2018-08-13T20:58:55.099Z,1.87
2018-08-13T21:01:21.968Z,2.00
2018-08-13T21:03:48.852Z,1.97
2018-08-13T21:06:15.758Z,1.80
2018-08-13T21:08:42.636Z,2.50
2018-08-13T21:11:09.471Z,1.90
2018-08-13T21:13:36.448Z,1.77
2018-08-13T21:16:03.372Z,1.80
2018-08-13T21:18:30.185Z,2.13
2018-08-13T21:20:57.018Z,1.73
2018-08-13T21:23:23.884Z,1.83
2018-08-13T21:25:50.959Z,1.70
2018-08-13T21:28:17.795Z,2.00
2018-08-13T21:30:44.619Z,1.80
2018-08-13T21:33:11.446Z,1.77
2018-08-13T21:35:38.446Z,1.87
2018-08-13T21:38:05.273Z,1.60
2018-08-13T21:40:32.114Z,1.53
2018-08-13T21:42:59.079Z,1.77
2018-08-13T21:45:26.460Z,2.00
2018-08-13T21:47:53.255Z,1.63
2018-08-13T21:50:20.740Z,1.63
2018-08-13T21:52:47.573Z,1.70
2018-08-13T21:55:14.626Z,1.60
2018-08-13T21:57:42.744Z,1.87
2018-08-13T22:00:09.595Z,1.53
2018-08-13T22:02:36.670Z,1.60
2018-08-13T22:05:03.643Z,1.30
2018-08-13T22:07:30.475Z,1.63
2018-08-13T22:09:57.308Z,1.70
2018-08-13T22:12:24.147Z,1.60
2018-08-13T22:14:51.006Z,1.63
2018-08-13T22:17:17.848Z,1.90
2018-08-13T22:19:45.569Z,1.70
2018-08-13T22:22:12.368Z,1.67
2018-08-13T22:24:39.213Z,1.30
2018-08-13T22:27:06.089Z,2.10
2018-08-13T22:29:32.884Z,1.63
2018-08-13T22:31:59.705Z,1.80
2018-08-13T22:34:26.579Z,1.83
2018-08-13T22:36:53.469Z,1.77
2018-08-13T22:39:21.145Z,1.60
2018-08-13T22:41:47.963Z,1.93
2018-08-13T22:44:14.802Z,1.60
2018-08-13T22:46:41.803Z,1.50
2018-08-13T22:49:08.823Z,1.67
2018-08-13T22:51:35.641Z,1.50
2018-08-13T22:54:02.490Z,1.57
2018-08-13T22:56:29.418Z,1.80
2018-08-13T22:58:56.286Z,1.40
2018-08-13T23:01:23.188Z,1.50
2018-08-13T23:03:50.093Z,1.70
2018-08-13T23:06:17.168Z,1.73
2018-08-13T23:08:44.008Z,1.60
2018-08-13T23:11:10.845Z,1.40
2018-08-13T23:13:37.671Z,1.50
2018-08-13T23:16:04.613Z,1.20
2018-08-13T23:18:31.433Z,1.80
2018-08-13T23:20:59.181Z,1.60
2018-08-13T23:23:26.012Z,1.43
2018-08-13T23:25:52.944Z,1.50
2018-08-13T23:28:19.805Z,1.80
2018-08-13T23:30:46.786Z,1.43
2018-08-13T23:33:13.607Z,1.70
2018-08-13T23:35:40.511Z,1.67
2018-08-13T23:38:07.689Z,1.37
2018-08-13T23:40:34.511Z,1.60
2018-08-13T23:43:01.335Z,1.30
2018-08-13T23:45:28.281Z,1.30
2018-08-13T23:47:55.093Z,1.27
2018-08-13T23:50:21.929Z,1.60
2018-08-13T23:52:48.765Z,1.77
2018-08-13T23:55:15.661Z,1.67
2018-08-13T23:57:42.484Z,1.70
